Time;durP1;ratioP1;P1;durP2;ratioP2;P2;SDS_P1;SDS_P2;PMS_P1;PMS_P2;Temp;Humidity;BMP_temperature;BMP_pressure;BME280_temperature;BME280_humidity;BME280_pressure;Samples;Min_cycle;Max_cycle;Signal;HPM_P1;HPM_P2
2021/04/13 00:01:21;;;;;;;5.63;4.33;;;3.60;85.60;;;3.08;82.29;99266.94;4975641;28;20687;-71
2021/04/13 00:03:54;;;;;;;5.10;4.33;;;3.60;85.90;;;3.08;82.10;99266.94;5032551;28;21003;-71
2021/04/13 00:06:28;;;;;;;5.20;4.13;;;3.50;85.80;;;3.06;82.08;99272.13;5065574;28;20639;-71
2021/04/13 00:09:11;;;;;;;6.10;4.33;;;3.50;85.90;;;3.08;82.25;99267.81;5065522;28;20635;-71
2021/04/13 00:11:41;;;;;;;7.30;4.80;;;3.60;86.00;;;3.06;82.30;99266.13;5068627;28;20635;-71
2021/04/13 00:14:13;;;;;;;6.23;4.63;;;3.50;85.90;;;3.05;81.99;99272.16;5068620;28;20767;-71
2021/04/13 00:16:41;;;;;;;5.73;4.13;;;3.50;85.80;;;3.04;82.52;99270.47;5068078;28;20627;-71
2021/04/13 00:19:11;;;;;;;5.43;4.17;;;3.50;86.00;;;3.03;82.48;99274.75;5096827;27;20628;-71
2021/04/13 00:21:44;;;;;;;6.80;4.60;;;3.50;86.20;;;3.01;82.65;99273.13;5062339;28;20634;-71
2021/04/13 00:24:16;;;;;;;5.87;4.17;;;3.50;86.60;;;3.02;82.22;99267.94;5069692;28;20626;-71
2021/04/13 00:26:49;;;;;;;6.47;5.23;;;3.50;86.40;;;3.02;82.59;99267.94;5065638;28;20623;-71
2021/04/13 00:29:22;;;;;;;6.53;4.50;;;3.50;86.40;;;3.06;82.32;99273.84;5066661;28;21185;-71
2021/04/13 00:31:55;;;;;;;6.93;4.87;;;3.50;86.70;;;3.01;82.32;99261.06;5062501;28;20639;-71
2021/04/13 00:34:29;;;;;;;6.53;4.37;;;3.50;86.40;;;2.98;82.21;99255.13;5064994;28;20671;-71
2021/04/13 00:37:20;;;;;;;6.50;4.73;;;3.50;86.30;;;3.00;82.25;99255.94;5083164;28;21092;-71
2021/04/13 00:39:48;;;;;;;6.30;4.13;;;3.40;86.40;;;2.94;82.27;99251.75;5067367;28;20667;-71
2021/04/13 00:42:26;;;;;;;6.00;5.00;;;3.40;86.40;;;2.90;82.82;99257.00;5069128;28;20663;-71
2021/04/13 00:45:05;;;;;;;9.40;4.87;;;3.40;86.70;;;2.86;82.67;99258.78;5048467;28;20678;-71
2021/04/13 00:47:36;;;;;;;7.30;5.43;;;3.30;86.90;;;2.83;82.80;99255.44;5065873;28;21194;-71
2021/04/13 00:50:11;;;;;;;6.43;4.60;;;3.30;86.60;;;2.86;82.56;99263.09;5065428;28;20624;-71
2021/04/13 00:52:43;;;;;;;7.23;4.70;;;3.30;86.50;;;2.84;82.63;99263.13;5067151;28;20641;-71
2021/04/13 00:55:13;;;;;;;6.77;4.63;;;3.30;86.50;;;2.85;82.18;99261.41;5062278;28;20730;-71
2021/04/13 00:57:46;;;;;;;6.80;4.00;;;3.30;86.30;;;2.82;82.75;99256.31;5065699;28;21002;-71
2021/04/13 01:00:27;;;;;;;8.40;4.70;;;3.30;86.80;;;2.81;82.71;99262.31;5066268;28;21228;-71
2021/04/13 01:02:58;;;;;;;5.63;4.67;;;3.30;87.00;;;2.85;82.50;99272.53;5065535;28;20624;-71
2021/04/13 01:05:37;;;;;;;5.03;3.93;;;3.30;86.80;;;2.84;82.63;99270.00;5064471;28;20638;-71
2021/04/13 01:08:21;;;;;;;5.87;4.60;;;3.30;87.20;;;2.82;82.65;99271.75;5065840;28;21189;-71
2021/04/13 01:10:56;;;;;;;4.57;4.00;;;3.30;87.10;;;2.84;82.46;99267.41;5066212;28;20631;-71
2021/04/13 01:13:38;;;;;;;8.17;4.97;;;3.30;87.20;;;2.85;82.71;99263.97;5065544;28;20659;-71
2021/04/13 01:16:07;;;;;;;5.10;4.07;;;3.30;87.30;;;2.84;82.75;99272.56;5066886;28;20628;-71
2021/04/13 01:18:39;;;;;;;5.17;4.20;;;3.30;87.20;;;2.83;82.86;99270.88;5064805;28;21002;-71
2021/04/13 01:21:30;;;;;;;5.33;4.10;;;3.30;87.00;;;2.87;82.69;99268.22;5066098;28;20995;-71
2021/04/13 01:24:09;;;;;;;5.83;4.30;;;3.30;87.20;;;2.86;82.84;99269.09;5069577;28;20636;-71
2021/04/13 01:26:43;;;;;;;6.40;4.50;;;3.30;87.20;;;2.81;81.82;99273.50;5065719;28;20627;-71
2021/04/13 01:29:16;;;;;;;4.37;3.97;;;3.30;86.40;;;2.73;82.14;99269.34;5079870;28;20722;-71
2021/04/13 01:31:52;;;;;;;7.87;4.57;;;3.20;85.80;;;2.69;82.54;99272.00;5079479;28;20986;-71
2021/04/13 01:34:27;;;;;;;7.43;4.27;;;3.20;86.50;;;2.64;83.08;99264.38;5063829;28;20683;-71
2021/04/13 01:37:16;;;;;;;12.97;4.50;;;3.10;87.20;;;2.60;82.87;99267.91;5059912;28;20631;-71
2021/04/13 01:39:50;;;;;;;4.80;4.20;;;3.10;87.60;;;2.58;83.31;99269.63;5080626;28;21013;-71
2021/04/13 01:42:19;;;;;;;7.40;4.50;;;3.10;87.70;;;2.60;82.98;99265.31;5073664;28;20632;-71
2021/04/13 01:44:50;;;;;;;7.90;5.00;;;3.10;87.50;;;2.57;83.19;99270.53;5050433;28;20640;-71
2021/04/13 01:47:22;;;;;;;5.83;4.03;;;3.10;88.10;;;2.56;83.55;99268.81;5061271;28;21051;-71
2021/04/13 01:49:54;;;;;;;6.30;4.87;;;3.00;88.20;;;2.60;83.57;99272.19;5064000;28;20624;-71
2021/04/13 01:52:29;;;;;;;8.90;5.13;;;3.00;88.40;;;2.57;84.42;99269.66;5063552;28;20641;-71
2021/04/13 01:54:58;;;;;;;5.17;4.27;;;3.10;88.90;;;2.58;83.68;99274.78;5042622;28;20670;-71
2021/04/13 01:57:35;;;;;;;7.83;4.77;;;3.00;89.30;;;2.58;83.56;99274.78;5062654;28;20714;-71
2021/04/13 02:00:15;;;;;;;9.30;5.20;;;3.00;89.20;;;2.55;82.62;99274.00;5066645;28;20647;-71
2021/04/13 02:02:52;;;;;;;7.87;5.40;;;3.00;87.60;;;2.47;82.68;99271.56;5072036;28;21242;-71
2021/04/13 02:05:26;;;;;;;6.63;5.00;;;2.90;86.90;;;2.45;82.58;99277.59;5063661;28;21236;-71
2021/04/13 02:08:03;;;;;;;7.37;5.40;;;2.90;87.00;;;2.42;82.84;99275.06;5064387;28;20650;-71
2021/04/13 02:10:41;;;;;;;8.20;4.97;;;2.90;87.30;;;2.39;83.09;99273.41;5066683;28;20643;-71
2021/04/13 02:13:16;;;;;;;9.03;7.27;;;2.90;87.80;;;2.38;82.97;99283.75;5079004;28;20746;-71
2021/04/13 02:15:54;;;;;;;9.60;6.13;;;2.90;87.80;;;2.34;83.39;99277.78;5081338;28;20646;-71
2021/04/13 02:18:28;;;;;;;6.60;4.93;;;2.80;88.70;;;2.38;83.35;99278.59;5064863;28;20631;-71
2021/04/13 02:20:58;;;;;;;7.93;5.00;;;2.90;87.90;;;2.45;82.93;99287.88;5064158;28;20648;-71
2021/04/13 02:23:32;;;;;;;5.97;4.87;;;2.90;88.00;;;2.43;83.60;99285.34;5066502;28;21225;-71
2021/04/13 02:26:05;;;;;;;7.23;4.90;;;2.90;88.00;;;2.44;82.94;99281.06;5062731;28;20643;-71
2021/04/13 02:28:36;;;;;;;6.57;5.03;;;2.90;88.00;;;2.48;82.61;99291.28;5062706;28;20615;-71
2021/04/13 02:31:08;;;;;;;7.37;5.13;;;2.90;87.40;;;2.42;82.78;99281.09;5078746;28;20626;-71
2021/04/13 02:33:40;;;;;;;5.73;4.90;;;2.90;87.40;;;2.35;82.69;99288.94;5076115;28;20672;-71
2021/04/13 02:36:17;;;;;;;5.40;4.57;;;2.80;87.50;;;2.33;82.58;99283.81;5064579;28;20647;-71
2021/04/13 02:39:07;;;;;;;7.80;5.00;;;2.80;87.80;;;2.31;82.80;99282.13;5064385;28;20631;-71
2021/04/13 02:41:45;;;;;;;6.40;5.30;;;2.80;87.70;;;2.27;82.67;99288.22;5067068;28;20613;-71
2021/04/13 02:44:18;;;;;;;5.33;4.37;;;2.80;87.30;;;2.28;82.94;99289.06;5066122;28;20638;-71
2021/04/13 02:46:47;;;;;;;6.53;4.70;;;2.80;87.50;;;2.27;83.03;99287.34;5064346;28;21064;-71
2021/04/13 02:49:19;;;;;;;7.53;5.30;;;2.80;87.90;;;2.27;83.23;99287.34;5066640;28;20740;-71
2021/04/13 02:51:53;;;;;;;5.63;5.00;;;2.80;88.10;;;2.25;83.59;99297.69;5065905;28;20990;-71
2021/04/13 02:54:25;;;;;;;11.93;5.63;;;2.70;88.40;;;2.26;82.95;99301.97;5061404;28;20655;-71
2021/04/13 02:56:59;;;;;;;6.70;5.07;;;2.80;88.30;;;2.28;83.61;99296.78;5062572;28;20632;-71
2021/04/13 02:59:31;;;;;;;8.87;5.93;;;2.80;88.30;;;2.27;83.40;99302.78;5064802;28;20651;-71
2021/04/13 03:02:11;;;;;;;8.47;5.10;;;2.80;88.50;;;2.29;83.92;99296.75;5061415;28;20961;-71
2021/04/13 03:04:44;;;;;;;8.70;5.50;;;2.80;88.70;;;2.31;84.02;99289.00;5081639;28;20632;-71
2021/04/13 03:07:17;;;;;;;9.00;5.20;;;2.80;88.90;;;2.30;83.78;99292.47;5064076;28;21527;-71
2021/04/13 03:09:45;;;;;;;8.37;4.97;;;2.80;89.50;;;2.30;83.53;99295.03;5064538;28;20615;-71
2021/04/13 03:12:14;;;;;;;6.20;4.30;;;2.80;88.40;;;2.22;83.06;99294.31;5066007;28;20742;-71
2021/04/13 03:14:48;;;;;;;6.03;5.20;;;2.70;87.80;;;2.17;83.14;99301.25;5064007;28;20658;-71
2021/04/13 03:17:21;;;;;;;5.60;4.07;;;2.70;88.20;;;2.23;83.07;99306.31;5065069;28;20631;-71
2021/04/13 03:19:58;;;;;;;6.20;4.27;;;2.70;88.40;;;2.20;83.61;99301.22;5064051;28;20628;-71
2021/04/13 03:22:26;;;;;;;6.53;4.60;;;2.70;88.80;;;2.20;83.67;99304.63;5061907;28;20631;-71
2021/04/13 03:24:55;;;;;;;6.70;4.90;;;2.70;89.40;;;2.23;83.65;99308.88;5066402;28;20628;-71
2021/04/13 03:27:30;;;;;;;6.93;3.83;;;2.70;89.50;;;2.22;83.66;99310.59;5094340;28;21186;-71
2021/04/13 03:30:06;;;;;;;5.67;4.07;;;2.70;89.50;;;2.18;83.81;99303.81;5063855;28;20725;-71
2021/04/13 03:32:41;;;;;;;4.50;4.07;;;2.70;89.60;;;2.17;83.95;99316.69;5093851;28;20615;-71
2021/04/13 03:35:12;;;;;;;6.90;4.50;;;2.70;88.80;;;2.16;83.43;99317.56;5060855;28;20667;-71
2021/04/13 03:37:44;;;;;;;5.90;4.70;;;2.70;89.10;;;2.12;83.85;99314.19;5058414;28;20668;-71
2021/04/13 03:40:18;;;;;;;7.07;4.90;;;2.70;89.10;;;2.17;83.63;99324.41;5057912;28;20765;-71
2021/04/13 03:42:46;;;;;;;7.13;4.80;;;2.60;88.40;;;2.12;83.29;99314.19;5063504;28;20213;-71
2021/04/13 03:45:16;;;;;;;6.37;4.60;;;2.60;88.10;;;2.07;82.99;99320.28;5063390;28;20968;-71
2021/04/13 03:47:47;;;;;;;6.40;5.03;;;2.60;87.50;;;1.98;82.37;99316.09;5096409;28;21435;-70
2021/04/13 03:50:23;;;;;;;6.63;4.77;;;2.50;86.80;;;1.88;81.77;99314.56;5064663;28;21064;-70
2021/04/13 03:53:03;;;;;;;5.90;4.67;;;2.50;86.10;;;1.82;82.12;99316.38;5064619;28;22221;-71
2021/04/13 03:55:31;;;;;;;6.80;4.80;;;2.40;86.20;;;1.81;82.45;99318.97;5095566;28;20637;-70
2021/04/13 03:57:59;;;;;;;8.37;5.00;;;2.30;86.50;;;1.78;82.77;99312.16;5064923;28;20642;-71
2021/04/13 04:00:28;;;;;;;8.30;5.30;;;2.30;86.80;;;1.82;82.63;99315.50;5061922;28;21256;-71
2021/04/13 04:02:56;;;;;;;6.87;4.50;;;2.30;87.30;;;1.82;83.17;99316.38;5062151;28;20649;-71
2021/04/13 04:05:25;;;;;;;8.93;4.87;;;2.30;87.40;;;1.82;82.78;99313.81;5061379;28;21102;-71
2021/04/13 04:07:58;;;;;;;8.40;4.60;;;2.30;87.70;;;1.82;83.64;99313.81;5062989;28;21178;-71
2021/04/13 04:10:34;;;;;;;9.97;4.47;;;2.30;88.20;;;1.80;83.82;99317.28;5080294;28;20627;-70
2021/04/13 04:13:32;;;;;;;6.17;4.53;;;2.30;88.50;;;1.78;83.61;99314.72;5065136;28;20660;-70
2021/04/13 04:16:12;;;;;;;8.77;4.80;;;2.30;89.00;;;1.82;84.12;99313.81;5064725;28;20671;-71
2021/04/13 04:18:43;;;;;;;8.90;4.33;;;2.30;89.60;;;1.88;84.64;99319.72;5061855;28;21194;-71
2021/04/13 04:21:32;;;;;;;7.63;4.50;;;2.40;90.10;;;1.90;83.52;99328.25;5061378;28;20731;-71
2021/04/13 04:24:07;;;;;;;8.90;5.10;;;2.40;89.70;;;1.91;84.43;99329.09;5062658;28;21183;-73
2021/04/13 04:26:46;;;;;;;5.20;4.23;;;2.40;90.10;;;1.97;83.53;99318.69;5064524;28;21172;-68
2021/04/13 04:29:19;;;;;;;7.20;4.90;;;2.50;89.30;;;1.96;83.75;99328.16;5066508;28;20648;-69
2021/04/13 04:31:48;;;;;;;6.93;4.40;;;2.40;89.90;;;2.01;83.68;99330.66;5064709;28;20651;-70
2021/04/13 04:34:49;;;;;;;5.67;4.30;;;2.50;89.70;;;2.07;83.16;99326.25;5066632;28;20663;-69
2021/04/13 04:37:56;;;;;;;7.20;4.67;;;2.50;89.20;;;2.04;83.73;99331.44;5094768;28;20635;-69
2021/04/13 04:41:02;;;;;;;5.40;4.90;;;2.50;88.90;;;2.05;83.91;99342.59;5064628;28;21205;-70
2021/04/13 04:43:53;;;;;;;6.73;4.80;;;2.50;89.30;;;1.99;82.88;99337.56;5065644;28;20631;-69
2021/04/13 04:46:33;;;;;;;6.00;4.53;;;2.50;87.80;;;1.93;83.03;99335.06;5068534;28;20662;-69
2021/04/13 04:49:05;;;;;;;7.27;4.77;;;2.50;88.50;;;1.95;82.70;99335.88;5062196;28;20631;-70
2021/04/13 04:51:32;;;;;;;6.87;5.30;;;2.40;87.90;;;1.92;83.42;99339.38;5068871;28;21168;-70
2021/04/13 04:54:03;;;;;;;6.40;4.90;;;2.40;88.10;;;1.97;82.75;99340.16;5076692;28;20643;-70
2021/04/13 04:56:31;;;;;;;6.80;5.00;;;2.40;88.30;;;1.98;82.74;99341.81;5069798;28;20639;-70
2021/04/13 04:59:00;;;;;;;6.40;5.00;;;2.50;88.60;;;2.02;83.08;99356.34;5068040;28;20705;-70
2021/04/13 05:01:28;;;;;;;8.90;4.83;;;2.50;87.90;;;2.06;82.96;99352.00;5068292;28;20628;-70
2021/04/13 05:03:57;;;;;;;5.83;4.40;;;2.50;88.20;;;2.07;82.76;99353.72;5066290;28;20631;-70
2021/04/13 05:06:27;;;;;;;6.20;4.40;;;2.60;87.70;;;2.07;82.60;99356.28;5064769;28;20685;-70
2021/04/13 05:08:54;;;;;;;7.23;4.80;;;2.60;89.20;;;2.10;82.95;99358.81;5070321;28;20631;-70
2021/04/13 05:11:24;;;;;;;6.23;4.83;;;2.60;88.10;;;2.14;83.00;99365.63;5063836;28;20636;-70
2021/04/13 05:13:52;;;;;;;5.30;4.30;;;2.60;88.40;;;2.15;82.62;99368.16;5068600;28;20666;-70
2021/04/13 05:16:22;;;;;;;7.90;3.93;;;2.70;88.50;;;2.20;83.10;99376.66;5064979;28;20650;-69
2021/04/13 05:18:50;;;;;;;8.10;4.80;;;2.70;88.00;;;2.28;82.85;99371.41;5060778;28;20701;-70
2021/04/13 05:21:19;;;;;;;13.37;5.53;;;2.70;88.20;;;2.34;83.01;99378.13;5091892;27;20639;-69
2021/04/13 05:23:46;;;;;;;8.63;4.67;;;2.80;88.80;;;2.37;81.66;99378.09;5060773;28;20635;-69
2021/04/13 05:26:15;;;;;;;6.43;4.70;;;2.80;86.60;;;2.45;81.66;99386.56;5082970;28;20639;-69
2021/04/13 05:28:43;;;;;;;5.13;4.03;;;2.90;86.10;;;2.64;80.79;99384.53;5063992;28;20708;-69
2021/04/13 05:31:11;;;;;;;6.67;4.90;;;3.00;85.70;;;2.79;80.39;99382.53;5066856;28;20730;-69
2021/04/13 05:33:39;;;;;;;6.20;5.23;;;3.10;85.30;;;2.89;79.35;99384.09;5062163;28;20717;-69
2021/04/13 05:36:08;;;;;;;9.83;5.30;;;3.20;83.80;;;3.11;79.07;99383.69;5065187;28;20654;-69
2021/04/13 05:38:40;;;;;;;8.80;5.30;;;3.40;83.60;;;3.47;79.06;99388.13;5066674;28;20631;-69
2021/04/13 05:41:12;;;;;;;6.07;4.90;;;3.70;84.20;;;3.80;77.99;99388.28;5065514;28;20642;-68
2021/04/13 05:43:43;;;;;;;9.30;5.57;;;4.00;83.50;;;4.09;78.05;99398.81;5067466;28;20636;-68
2021/04/13 05:46:18;;;;;;;5.63;5.03;;;4.20;82.70;;;4.39;77.53;99407.59;5067798;28;20632;-67
2021/04/13 05:48:46;;;;;;;6.27;4.70;;;4.50;82.00;;;4.65;76.42;99400.06;5069055;28;20712;-69
2021/04/13 05:51:14;;;;;;;5.77;4.37;;;4.80;80.90;;;4.80;75.80;99400.53;5062545;28;23659;-71
2021/04/13 05:53:41;;;;;;;5.33;4.30;;;5.00;80.00;;;4.92;76.09;99404.56;5067580;28;20655;-69
2021/04/13 05:56:13;;;;;;;6.97;4.97;;;5.10;79.50;;;4.79;75.68;99410.91;5065612;28;20646;-69
2021/04/13 05:58:45;;;;;;;6.80;5.37;;;5.10;78.80;;;4.82;76.25;99409.09;5068867;28;20645;-70
2021/04/13 06:01:14;;;;;;;6.13;4.67;;;5.10;79.10;;;4.73;76.28;99411.06;5066444;28;20639;-69
2021/04/13 06:03:44;;;;;;;7.60;5.43;;;5.10;79.00;;;4.58;75.82;99410.59;5064690;28;20651;-69
2021/04/13 06:06:13;;;;;;;5.43;4.30;;;4.90;78.40;;;4.43;75.60;99416.09;5064792;28;20632;-69
2021/04/13 06:08:41;;;;;;;8.40;4.93;;;4.80;78.20;;;4.31;75.99;99404.31;5066749;28;20640;-69
2021/04/13 06:11:13;;;;;;;7.07;5.60;;;4.70;78.30;;;4.30;76.68;99415.53;5066702;28;20643;-69
2021/04/13 06:13:41;;;;;;;7.50;5.43;;;4.70;79.20;;;4.61;77.63;99421.69;5066163;28;20651;-70
2021/04/13 06:16:11;;;;;;;7.57;5.27;;;4.80;80.60;;;5.07;77.59;99414.53;5068220;28;20624;-70
2021/04/13 06:18:39;;;;;;;6.73;6.00;;;5.20;81.20;;;5.58;75.24;99417.41;5062329;28;20718;-69
2021/04/13 06:21:11;;;;;;;9.33;6.60;;;5.60;80.30;;;5.98;73.34;99424.03;5080883;28;20636;-72
2021/04/13 06:23:39;;;;;;;6.90;5.13;;;6.00;77.80;;;6.29;72.87;99424.84;5064471;28;20743;-70
2021/04/13 06:26:06;;;;;;;7.00;5.50;;;6.30;77.00;;;6.63;73.13;99428.91;5065348;28;20999;-70
2021/04/13 06:28:34;;;;;;;8.83;6.00;;;6.60;76.40;;;6.91;70.94;99428.00;5064953;28;21410;-70
2021/04/13 06:31:02;;;;;;;7.43;6.33;;;6.80;75.20;;;7.16;71.05;99434.09;5067763;28;20723;-70
2021/04/13 06:33:32;;;;;;;8.40;7.40;;;7.10;75.20;;;7.32;70.68;99441.31;5066565;28;21270;-69
2021/04/13 06:36:02;;;;;;;13.20;10.23;;;7.30;74.40;;;7.47;71.63;99442.50;5059982;28;20664;-70
2021/04/13 06:38:30;;;;;;;12.17;10.10;;;7.40;74.20;;;7.55;70.61;99449.16;5077761;28;20637;-69
2021/04/13 06:41:33;;;;;;;12.20;8.53;;;7.60;73.00;;;7.79;70.41;99445.69;5061057;28;21191;-69
2021/04/13 06:45:03;;;;;;;9.80;6.80;;;7.70;72.60;;;8.07;68.71;99448.09;5059093;28;20735;-69
2021/04/13 06:48:06;;;;;;;8.20;6.40;;;8.00;71.90;;;8.29;66.94;99446.41;5043064;28;20648;-70
2021/04/13 06:50:43;;;;;;;9.23;7.57;;;8.30;70.60;;;8.48;68.58;99450.84;5064202;28;20750;-70
2021/04/13 06:53:33;;;;;;;9.23;7.70;;;8.40;72.00;;;8.77;67.86;99449.72;5066293;28;20629;-70
2021/04/13 06:56:29;;;;;;;9.20;6.90;;;8.70;72.10;;;9.00;66.59;99447.88;5063427;28;20649;-69
2021/04/13 06:59:47;;;;;;;9.17;7.20;;;8.90;69.90;;;9.12;66.67;99439.56;5059197;28;20632;-69
2021/04/13 07:02:20;;;;;;;8.10;6.83;;;9.10;68.90;;;9.29;68.18;99445.78;5047872;28;21055;-69
2021/04/13 07:04:56;;;;;;;8.60;6.80;;;9.20;68.90;;;9.53;66.76;99439.53;5066448;28;20636;-70
2021/04/13 07:07:32;;;;;;;7.83;7.03;;;9.50;69.20;;;9.65;65.65;99444.22;5066363;28;20649;-70
2021/04/13 07:10:17;;;;;;;8.30;7.40;;;9.60;67.20;;;9.84;66.71;99446.78;5062392;28;20632;-70
2021/04/13 07:12:54;;;;;;;9.30;7.63;;;9.70;68.00;;;9.94;64.54;99442.91;5060802;28;20751;-70
2021/04/13 07:15:27;;;;;;;8.50;7.60;;;9.90;66.10;;;10.11;63.74;99444.78;5067800;28;20647;-70
2021/04/13 07:18:03;;;;;;;11.00;8.80;;;10.00;63.00;;;10.24;64.95;99443.28;5064903;28;20635;-70
2021/04/13 07:20:39;;;;;;;9.50;8.00;;;10.10;63.50;;;10.45;66.04;99454.44;5062083;28;20660;-70
2021/04/13 07:23:16;;;;;;;9.07;8.10;;;10.30;64.70;;;10.43;63.71;99455.44;5065027;28;21000;-70
2021/04/13 07:25:50;;;;;;;10.70;9.53;;;10.40;62.50;;;10.51;63.46;99446.34;5061925;28;20615;-70
2021/04/13 07:28:24;;;;;;;12.50;11.20;;;10.50;62.70;;;10.65;63.73;99448.31;5064565;28;20781;-70
2021/04/13 07:31:00;;;;;;;12.97;9.90;;;10.60;62.60;;;10.80;64.39;99449.25;5061335;28;21393;-70
2021/04/13 07:33:32;;;;;;;11.37;10.20;;;10.70;63.10;;;10.97;64.96;99451.91;5063318;28;20638;-69
2021/04/13 07:36:08;;;;;;;13.17;11.77;;;10.90;63.10;;;11.09;63.91;99451.31;5058925;28;20691;-69
2021/04/13 07:38:42;;;;;;;12.03;10.83;;;11.00;62.70;;;11.14;62.69;99445.88;5059344;28;21178;-69
2021/04/13 07:41:22;;;;;;;13.17;11.23;;;11.10;61.90;;;11.13;66.33;99452.03;5064625;28;20643;-69
2021/04/13 07:43:57;;;;;;;12.90;11.60;;;11.10;64.20;;;11.38;64.30;99453.34;5065610;28;20677;-69
2021/04/13 07:46:47;;;;;;;12.67;11.37;;;11.30;64.30;;;11.63;62.55;99448.63;5061990;28;20659;-69
2021/04/13 07:49:22;;;;;;;12.53;10.63;;;11.50;61.10;;;11.60;61.62;99448.78;5062466;28;20705;-70
2021/04/13 07:52:07;;;;;;;12.30;10.00;;;11.50;59.10;;;11.34;61.55;99449.19;5059868;28;21022;-70
2021/04/13 07:54:54;;;;;;;12.30;10.27;;;11.30;59.40;;;11.21;60.36;99442.03;5058250;28;20666;-70
2021/04/13 07:57:36;;;;;;;12.90;11.43;;;11.20;58.30;;;10.92;61.50;99438.25;5042758;28;20710;-70
2021/04/13 08:00:14;;;;;;;12.30;10.77;;;11.00;59.20;;;10.80;63.52;99448.44;5058276;28;20750;-70
2021/04/13 08:02:48;;;;;;;12.57;10.33;;;10.90;59.90;;;10.58;61.31;99446.91;5062226;28;20637;-70
2021/04/13 08:05:40;;;;;;;11.33;10.23;;;10.80;58.80;;;10.32;61.61;99441.19;5066218;28;20635;-70
2021/04/13 08:08:21;;;;;;;12.80;10.00;;;10.50;58.20;;;10.52;63.52;99444.56;5063915;28;20698;-70
2021/04/13 08:10:49;;;;;;;11.43;9.10;;;10.50;59.40;;;10.32;61.44;99436.81;5068446;28;20992;-70
2021/04/13 08:13:31;;;;;;;11.87;9.33;;;10.40;58.10;;;10.79;61.01;99436.28;5068664;28;20695;-70
2021/04/13 08:15:59;;;;;;;8.97;8.07;;;10.70;59.00;;;11.27;58.10;99438.22;5064782;28;20665;-69
2021/04/13 08:18:39;;;;;;;11.13;8.97;;;11.10;57.10;;;10.94;58.88;99430.34;5065634;28;20631;-69
2021/04/13 08:21:22;;;;;;;12.70;9.40;;;10.90;55.50;;;10.95;59.08;99427.66;5066138;28;20959;-70
2021/04/13 08:23:52;;;;;;;11.97;9.03;;;11.00;57.20;;;11.23;59.57;99432.38;5068430;28;20649;-70
2021/04/13 08:26:40;;;;;;;10.30;8.47;;;11.10;56.40;;;11.14;57.66;99433.69;5064017;28;21182;-70
2021/04/13 08:29:18;;;;;;;9.87;8.77;;;11.20;55.50;;;10.76;56.90;99426.00;5067393;28;20662;-70
2021/04/13 08:35:01;;;;;;;8.93;7.90;;;10.50;52.30;;;9.25;55.78;99423.41;5066276;28;20679;-69
2021/04/13 08:37:54;;;;;;;9.30;7.73;;;9.50;51.00;;;8.86;56.70;99429.38;5064699;28;21118;-70
2021/04/13 08:40:29;;;;;;;9.87;7.63;;;9.10;53.00;;;8.92;58.13;99418.72;5066815;28;21046;-69
2021/04/13 08:43:11;;;;;;;11.80;8.27;;;9.00;54.20;;;9.14;58.25;99425.59;5065017;28;21273;-69
2021/04/13 08:45:45;;;;;;;7.73;7.00;;;9.20;54.90;;;9.39;56.52;99424.47;5063947;28;20749;-69
2021/04/13 08:48:21;;;;;;;8.03;7.23;;;9.30;54.10;;;10.07;56.39;99428.44;5066946;28;20633;-69
2021/04/13 08:51:07;;;;;;;8.03;6.80;;;9.80;54.30;;;10.54;53.00;99424.47;5060363;28;20627;-69
2021/04/13 08:53:42;;;;;;;8.47;6.90;;;10.20;50.40;;;10.87;53.27;99427.19;5064576;28;21467;-69
2021/04/13 08:56:21;;;;;;;6.93;6.17;;;10.60;50.80;;;11.27;53.37;99419.94;5065356;28;20659;-69
2021/04/13 08:58:52;;;;;;;7.40;6.70;;;10.90;50.10;;;11.72;51.27;99424.63;5065198;28;20631;-69
2021/04/13 09:01:33;;;;;;;7.53;6.80;;;11.30;49.20;;;12.05;50.87;99427.16;5065865;28;21314;-70
2021/04/13 09:04:05;;;;;;;7.20;6.47;;;11.70;49.10;;;12.14;49.99;99424.06;5065224;28;20647;-70
2021/04/13 09:06:56;;;;;;;8.10;6.40;;;11.90;48.60;;;12.04;50.07;99420.25;5064795;28;20647;-70
2021/04/13 09:09:41;;;;;;;8.33;7.17;;;11.80;46.50;;;11.88;51.67;99429.81;5065559;28;20650;-70
2021/04/13 09:12:24;;;;;;;6.90;6.20;;;11.80;47.00;;;11.46;50.01;99425.91;5068623;28;20689;-70
2021/04/13 09:15:01;;;;;;;6.60;6.00;;;11.30;44.90;;;11.57;49.78;99423.63;5066429;28;21051;-70
2021/04/13 09:17:45;;;;;;;7.27;6.47;;;11.30;45.00;;;11.46;50.71;99432.91;5068755;28;20701;-70
2021/04/13 09:20:27;;;;;;;6.73;6.03;;;11.20;45.70;;;11.41;50.39;99432.28;5065153;28;21030;-70
2021/04/13 09:23:12;;;;;;;6.30;5.70;;;11.10;45.60;;;11.44;49.11;99422.56;5062943;28;20727;-70
2021/04/13 09:25:46;;;;;;;6.60;5.87;;;11.20;44.80;;;11.41;48.06;99424.44;5065324;28;20635;-70
2021/04/13 09:28:20;;;;;;;7.30;6.20;;;11.10;44.30;;;11.46;51.43;99430.31;5067263;28;20644;-70
2021/04/13 09:31:09;;;;;;;7.20;6.50;;;11.30;46.20;;;11.76;50.75;99430.44;5064756;28;20717;-70
2021/04/13 09:33:41;;;;;;;6.80;5.53;;;11.50;47.30;;;11.94;49.74;99424.28;5068241;28;20677;-70
2021/04/13 09:36:35;;;;;;;6.97;6.10;;;11.70;46.60;;;11.87;48.42;99425.50;5062496;28;20672;-70
2021/04/13 09:39:39;;;;;;;6.90;6.30;;;11.70;44.70;;;11.38;50.06;99416.75;5057874;28;20789;-70
2021/04/13 09:42:57;;;;;;;7.77;6.33;;;11.10;43.00;;;11.47;51.14;99422.44;5067570;28;20217;-69
2021/04/13 09:45:47;;;;;;;7.70;6.30;;;11.20;45.10;;;11.87;49.93;99419.44;5032167;28;20620;-69
2021/04/13 09:48:52;;;;;;;6.90;6.30;;;11.50;45.40;;;11.99;50.88;99422.25;5066966;28;20636;-69
2021/04/13 09:51:28;;;;;;;7.20;6.47;;;11.80;48.40;;;12.06;49.71;99417.56;5064571;28;20734;-69
2021/04/13 09:54:28;;;;;;;6.57;5.97;;;11.90;46.50;;;11.52;50.56;99417.81;5060515;28;20732;-70
2021/04/13 09:58:02;;;;;;;7.80;6.80;;;11.50;44.20;;;11.11;51.65;99412.06;5068276;28;20635;-70
2021/04/13 10:00:58;;;;;;;6.93;6.23;;;11.20;45.70;;;11.01;52.37;99418.69;5062636;28;21210;-70
2021/04/13 10:04:12;;;;;;;7.07;6.10;;;11.10;46.40;;;10.80;51.57;99411.06;5061226;28;20970;-70
2021/04/13 10:07:26;;;;;;;7.40;6.43;;;10.90;46.70;;;10.81;52.37;99404.00;5065342;28;20690;-70
2021/04/13 10:09:58;;;;;;;7.80;6.40;;;10.90;47.80;;;11.21;54.04;99403.72;5068194;28;20651;-70
2021/04/13 10:13:12;;;;;;;7.97;7.10;;;11.20;49.10;;;11.36;52.23;99403.78;5068749;28;20662;-70
2021/04/13 10:16:06;;;;;;;7.13;6.40;;;11.30;48.30;;;11.36;53.51;99405.56;5065567;28;20716;-70
2021/04/13 10:19:15;;;;;;;8.97;6.90;;;11.40;48.20;;;11.29;52.46;99401.59;5062695;28;20955;-70
2021/04/13 10:22:52;;;;;;;9.30;7.40;;;11.40;46.80;;;11.09;50.42;99399.09;5063246;28;20977;-70
2021/04/13 10:26:23;;;;;;;7.70;6.10;;;11.20;46.80;;;10.94;48.47;99401.63;5023083;28;20779;-70
2021/04/13 10:29:42;;;;;;;8.10;6.70;;;11.10;45.40;;;10.89;50.08;99390.56;5064111;28;20642;-70
2021/04/13 10:32:41;;;;;;;6.47;5.70;;;10.90;44.30;;;11.30;54.88;99396.25;5060580;28;20739;-70
2021/04/13 10:35:51;;;;;;;7.40;6.40;;;11.20;47.30;;;11.85;53.85;99388.16;5063652;28;20734;-70
2021/04/13 10:39:07;;;;;;;7.90;7.07;;;11.60;49.50;;;12.39;50.92;99401.72;5051811;28;20726;-70
2021/04/13 10:42:27;;;;;;;7.70;7.00;;;12.10;47.00;;;11.62;49.18;99394.66;5060745;28;20643;-70
2021/04/13 10:45:37;;;;;;;7.60;6.43;;;11.60;43.80;;;10.87;51.14;99389.81;5064774;28;22443;-70
2021/04/13 10:48:54;;;;;;;7.70;6.90;;;11.00;46.00;;;10.48;51.81;99385.66;5064653;28;20631;-70
2021/04/13 10:52:10;;;;;;;7.73;6.80;;;10.60;46.60;;;10.08;52.70;99385.81;5058895;28;20628;-70
2021/04/13 10:55:12;;;;;;;7.47;6.30;;;10.30;47.10;;;9.90;52.34;99384.00;5063419;28;20762;-69
2021/04/13 10:58:15;;;;;;;7.17;6.47;;;9.90;47.20;;;9.78;51.44;99393.28;5084589;28;20638;-69
2021/04/13 11:01:36;;;;;;;6.70;5.80;;;9.80;46.40;;;9.88;50.98;99380.63;5067732;28;20654;-69
2021/04/13 11:04:58;;;;;;;7.67;5.70;;;9.80;46.40;;;10.46;50.74;99380.53;5066583;28;20636;-70
2021/04/13 11:08:25;;;;;;;6.77;5.87;;;10.10;45.90;;;10.16;52.54;99381.06;4982667;28;20739;-70
2021/04/13 11:11:59;;;;;;;7.00;5.50;;;10.00;46.60;;;9.38;55.14;99388.09;5068007;28;20639;-69
2021/04/13 11:15:22;;;;;;;6.90;6.20;;;9.40;50.10;;;9.00;59.02;99388.03;5038826;28;20762;-69
2021/04/13 11:17:57;;;;;;;7.73;5.40;;;9.00;52.50;;;9.12;55.91;99385.75;5097777;28;20209;-69
2021/04/13 11:20:58;;;;;;;6.43;4.30;;;9.10;52.90;;;9.15;53.28;99385.63;5064005;28;20635;-69
2021/04/13 11:23:59;;;;;;;5.97;4.93;;;9.10;50.80;;;9.24;52.54;99371.41;5067484;28;20635;-69
2021/04/13 11:27:19;;;;;;;6.73;4.70;;;9.30;48.40;;;9.31;53.89;99365.88;5069073;28;20641;-69